createdAt,value
2023-04-08T00:00:19.368Z,80.45
2023-04-08T00:01:19.392Z,82.97
2023-04-08T00:02:19.571Z,83.58
2023-04-08T00:03:19.569Z,80.07
2023-04-08T00:04:19.626Z,79.97
2023-04-08T00:05:19.530Z,86.52
2023-04-08T00:06:19.567Z,83.21
2023-04-08T00:07:19.617Z,84.29
2023-04-08T00:08:19.667Z,85.22
2023-04-08T00:09:19.692Z,82.83
2023-04-08T00:10:19.817Z,86.12
2023-04-08T00:11:19.765Z,81.09
2023-04-08T00:12:19.813Z,86.65
2023-04-08T00:13:19.918Z,84.29
2023-04-08T00:14:20.036Z,86.32
2023-04-08T00:15:20.053Z,83.65
2023-04-08T00:16:20.130Z,83.87
2023-04-08T00:17:20.144Z,84.64
2023-04-08T00:18:20.222Z,87.69
2023-04-08T00:19:20.263Z,83.92
2023-04-08T00:20:20.334Z,87.50
2023-04-08T00:21:20.397Z,81.67
2023-04-08T00:22:20.453Z,87.39
2023-04-08T00:23:20.497Z,83.61
2023-04-08T00:24:20.569Z,83.32
2023-04-08T00:25:21.507Z,82.79
2023-04-08T00:26:20.672Z,83.33
2023-04-08T00:27:20.728Z,86.12
2023-04-08T00:28:20.815Z,87.44
2023-04-08T00:29:20.862Z,86.43
2023-04-08T00:30:20.911Z,87.14
2023-04-08T00:31:21.202Z,87.75
2023-04-08T00:32:21.054Z,87.27
2023-04-08T00:33:21.121Z,85.51
2023-04-08T00:34:21.228Z,85.63
2023-04-08T00:35:21.277Z,86.41
2023-04-08T00:36:21.308Z,85.26
2023-04-08T00:37:21.418Z,85.69
2023-04-08T00:38:21.436Z,83.38
2023-04-08T00:39:21.510Z,86.01
2023-04-08T00:40:21.573Z,84.21
2023-04-08T00:41:21.635Z,86.49
2023-04-08T00:42:21.670Z,88.18
2023-04-08T00:43:21.707Z,81.29
2023-04-08T00:44:21.715Z,85.07
2023-04-08T00:45:21.846Z,85.87
2023-04-08T00:46:21.848Z,84.07
2023-04-08T00:47:21.937Z,83.98
2023-04-08T00:48:21.956Z,89.77
2023-04-08T00:49:22.009Z,83.96
2023-04-08T00:50:22.684Z,88.24
2023-04-08T00:51:22.101Z,85.82
2023-04-08T00:52:22.132Z,85.19
2023-04-08T00:53:22.981Z,84.99
2023-04-08T00:54:22.227Z,86.20
2023-04-08T00:55:22.268Z,87.20
2023-04-08T00:56:22.308Z,86.68
2023-04-08T00:57:22.332Z,89.09
2023-04-08T00:58:22.364Z,85.04
2023-04-08T00:59:22.387Z,84.22
2023-04-08T01:00:22.458Z,85.69
2023-04-08T01:01:22.572Z,86.30
2023-04-08T01:02:22.820Z,87.99
2023-04-08T01:03:23.017Z,88.99
2023-04-08T01:04:22.843Z,86.51
2023-04-08T01:05:22.718Z,86.30
2023-04-08T01:06:22.755Z,84.69
2023-04-08T01:07:22.782Z,86.90
2023-04-08T01:08:22.940Z,84.54
2023-04-08T01:09:22.847Z,86.15
2023-04-08T01:10:22.896Z,87.93
2023-04-08T01:11:22.913Z,89.20
2023-04-08T01:12:22.971Z,87.55
2023-04-08T01:13:23.007Z,89.30
2023-04-08T01:14:23.089Z,89.93
2023-04-08T01:15:23.139Z,84.55
2023-04-08T01:16:23.310Z,86.95
2023-04-08T01:17:23.304Z,88.23
2023-04-08T01:18:23.349Z,87.72
2023-04-08T01:19:23.390Z,90.45
2023-04-08T01:20:24.277Z,83.81
2023-04-08T01:21:23.509Z,91.02
2023-04-08T01:22:23.526Z,87.65
2023-04-08T01:23:23.526Z,85.52
2023-04-08T01:24:23.556Z,90.47
2023-04-08T01:25:23.597Z,87.96
2023-04-08T01:26:23.603Z,89.41
2023-04-08T01:27:23.666Z,84.02
2023-04-08T01:28:23.706Z,87.86
2023-04-08T01:29:23.785Z,89.56
2023-04-08T01:30:23.766Z,83.87
2023-04-08T01:31:23.829Z,87.35
2023-04-08T01:32:23.884Z,87.38
2023-04-08T01:33:23.903Z,87.22
2023-04-08T01:34:23.944Z,83.75
2023-04-08T01:35:23.980Z,88.22
2023-04-08T01:36:23.990Z,91.74
2023-04-08T01:37:24.054Z,90.02
2023-04-08T01:38:24.069Z,89.39
2023-04-08T01:39:24.079Z,85.71
2023-04-08T01:40:24.118Z,85.81
2023-04-08T01:41:24.117Z,86.45
2023-04-08T01:42:24.152Z,87.88
2023-04-08T01:43:24.194Z,86.77
2023-04-08T01:44:24.258Z,90.69
2023-04-08T01:45:24.283Z,91.81
2023-04-08T01:46:24.410Z,90.60
2023-04-08T01:47:24.392Z,89.57
2023-04-08T01:48:25.193Z,87.74
2023-04-08T01:49:24.437Z,85.59
2023-04-08T01:50:24.498Z,89.90
2023-04-08T01:51:24.534Z,90.47
2023-04-08T01:52:24.590Z,87.73
2023-04-08T01:53:24.655Z,86.65
2023-04-08T01:54:24.689Z,85.42
2023-04-08T01:55:24.734Z,87.67
2023-04-08T01:56:24.732Z,88.46
2023-04-08T01:57:24.791Z,88.40
2023-04-08T01:58:24.874Z,90.35
2023-04-08T01:59:24.820Z,89.62
2023-04-08T02:00:24.858Z,86.79
2023-04-08T02:01:24.941Z,87.30
2023-04-08T02:02:25.052Z,89.32
2023-04-08T02:03:25.148Z,88.05
2023-04-08T02:04:25.092Z,87.49
2023-04-08T02:05:25.129Z,90.17
2023-04-08T02:06:25.148Z,87.80
2023-04-08T02:07:25.251Z,92.12
2023-04-08T02:08:25.222Z,89.39
2023-04-08T02:09:25.245Z,90.96
2023-04-08T02:10:25.268Z,88.30
2023-04-08T02:11:25.286Z,86.95
2023-04-08T02:12:25.335Z,86.76
2023-04-08T02:13:25.376Z,90.68
2023-04-08T02:14:25.372Z,88.08
2023-04-08T02:15:25.395Z,93.06
2023-04-08T02:16:25.561Z,87.06
2023-04-08T02:17:25.748Z,88.38
2023-04-08T02:18:25.506Z,88.15
2023-04-08T02:19:25.580Z,90.66
2023-04-08T02:20:25.615Z,87.55
2023-04-08T02:21:25.655Z,88.90
2023-04-08T02:22:25.720Z,89.76
2023-04-08T02:23:25.792Z,85.58
2023-04-08T02:24:26.724Z,86.19
2023-04-08T02:25:25.874Z,88.99
2023-04-08T02:26:25.897Z,88.44
2023-04-08T02:27:25.910Z,90.51
2023-04-08T02:28:25.936Z,91.48
2023-04-08T02:29:25.958Z,89.74
2023-04-08T02:30:25.966Z,86.16
2023-04-08T02:31:26.006Z,89.10
2023-04-08T02:32:26.023Z,88.61
2023-04-08T02:33:26.019Z,89.56
2023-04-08T02:34:26.037Z,91.31
2023-04-08T02:35:26.738Z,88.99
2023-04-08T02:36:26.075Z,87.91
2023-04-08T02:37:26.110Z,88.67
2023-04-08T02:38:26.149Z,92.26
2023-04-08T02:39:26.160Z,89.27
2023-04-08T02:40:26.206Z,87.97
2023-04-08T02:41:26.232Z,89.17
2023-04-08T02:42:26.282Z,90.87
2023-04-08T02:43:26.328Z,87.09
2023-04-08T02:44:26.348Z,89.16
2023-04-08T02:45:26.394Z,91.27
2023-04-08T02:46:27.210Z,91.98
2023-04-08T02:47:26.452Z,91.79
2023-04-08T02:48:26.443Z,89.91
2023-04-08T02:49:26.468Z,87.78
2023-04-08T02:50:26.486Z,89.30
2023-04-08T02:51:26.536Z,92.25
2023-04-08T02:52:26.557Z,90.59
2023-04-08T02:53:26.572Z,89.34
2023-04-08T02:54:26.601Z,90.61
2023-04-08T02:55:26.603Z,88.80
2023-04-08T02:56:26.636Z,90.96
2023-04-08T02:57:26.682Z,90.25
2023-04-08T02:58:26.692Z,92.64
2023-04-08T02:59:26.706Z,92.79
2023-04-08T03:00:26.740Z,89.57
2023-04-08T03:01:26.804Z,89.30
2023-04-08T03:02:26.923Z,89.32
2023-04-08T03:03:26.906Z,91.22
2023-04-08T03:04:26.833Z,87.63
2023-04-08T03:05:26.893Z,87.76
2023-04-08T03:06:26.961Z,89.18
2023-04-08T03:07:26.964Z,88.96
2023-04-08T03:08:27.009Z,88.84
2023-04-08T03:09:27.057Z,91.25
2023-04-08T03:10:27.101Z,88.30
2023-04-08T03:11:27.149Z,90.76
2023-04-08T03:12:27.206Z,92.60
2023-04-08T03:13:27.239Z,91.01
2023-04-08T03:14:27.311Z,91.92
2023-04-08T03:15:27.278Z,92.18
2023-04-08T03:16:27.352Z,91.55
2023-04-08T03:17:27.373Z,87.66
2023-04-08T03:18:27.432Z,89.71
2023-04-08T03:19:27.482Z,86.83
2023-04-08T03:20:27.584Z,88.97
2023-04-08T03:21:27.561Z,90.53
2023-04-08T03:22:27.629Z,87.52
2023-04-08T03:23:27.673Z,90.15
2023-04-08T03:24:27.682Z,88.68
2023-04-08T03:25:27.707Z,91.19
2023-04-08T03:26:27.746Z,87.45
2023-04-08T03:27:28.235Z,90.80
2023-04-08T03:28:27.853Z,89.56
2023-04-08T03:29:28.724Z,90.68
2023-04-08T03:30:27.893Z,90.41
2023-04-08T03:31:28.015Z,89.81
2023-04-08T03:32:28.953Z,90.02
2023-04-08T03:33:27.967Z,90.49
2023-04-08T03:34:27.967Z,90.86
2023-04-08T03:35:27.990Z,90.59
2023-04-08T03:36:27.961Z,89.86
2023-04-08T03:37:27.973Z,89.59
2023-04-08T03:38:27.983Z,89.82
2023-04-08T03:39:28.763Z,90.50
2023-04-08T03:40:27.991Z,90.96
2023-04-08T03:41:28.067Z,90.24
2023-04-08T03:42:27.997Z,87.83
2023-04-08T03:43:27.993Z,90.72
2023-04-08T03:44:28.004Z,90.74
2023-04-08T03:45:27.991Z,91.16
2023-04-08T03:46:28.146Z,90.99
2023-04-08T03:47:28.052Z,90.39
2023-04-08T03:48:28.054Z,87.74
2023-04-08T03:49:28.101Z,89.34
2023-04-08T03:50:28.108Z,93.92
2023-04-08T03:51:28.126Z,90.43
2023-04-08T03:52:28.167Z,93.99
2023-04-08T03:53:28.197Z,90.59
2023-04-08T03:54:28.210Z,93.65
2023-04-08T03:55:28.248Z,90.38
2023-04-08T03:56:28.260Z,92.96
2023-04-08T03:57:28.277Z,94.81
2023-04-08T03:58:28.305Z,92.59
2023-04-08T03:59:28.311Z,91.10
2023-04-08T04:00:28.318Z,92.28
2023-04-08T04:01:28.467Z,91.28
2023-04-08T04:02:28.607Z,87.94
2023-04-08T04:03:28.523Z,86.91
2023-04-08T04:04:28.541Z,91.18
2023-04-08T04:05:28.394Z,91.79
2023-04-08T04:06:28.397Z,92.64
2023-04-08T04:07:29.229Z,89.68
2023-04-08T04:08:28.431Z,91.25
2023-04-08T04:09:28.447Z,89.78
2023-04-08T04:10:28.466Z,88.69
2023-04-08T04:11:28.487Z,92.68
2023-04-08T04:12:28.525Z,90.72
2023-04-08T04:13:28.539Z,90.86
2023-04-08T04:14:28.577Z,92.49
2023-04-08T04:15:28.672Z,86.76
2023-04-08T04:16:29.787Z,92.24
2023-04-08T04:17:28.716Z,91.41
2023-04-08T04:18:28.789Z,92.58
2023-04-08T04:19:29.726Z,92.74
2023-04-08T04:20:28.729Z,92.85
2023-04-08T04:21:29.319Z,92.95
2023-04-08T04:22:28.792Z,93.13
2023-04-08T04:23:28.742Z,89.21
2023-04-08T04:24:29.270Z,89.78
2023-04-08T04:25:28.723Z,89.27
2023-04-08T04:26:28.711Z,88.76
2023-04-08T04:27:28.705Z,87.54
2023-04-08T04:28:28.754Z,90.01
2023-04-08T04:29:28.694Z,93.23
2023-04-08T04:30:28.697Z,91.82
2023-04-08T04:31:28.705Z,89.64
2023-04-08T04:32:28.728Z,92.65
2023-04-08T04:33:28.683Z,91.00
2023-04-08T04:34:28.677Z,92.53
2023-04-08T04:35:28.771Z,89.93
2023-04-08T04:36:28.700Z,89.61
2023-04-08T04:37:28.728Z,90.00
2023-04-08T04:38:28.726Z,90.43
2023-04-08T04:39:28.750Z,88.81
2023-04-08T04:40:29.743Z,88.83
2023-04-08T04:41:28.773Z,90.84
2023-04-08T04:42:28.799Z,89.70
2023-04-08T04:43:28.782Z,92.46
2023-04-08T04:44:28.805Z,88.60
2023-04-08T04:45:28.824Z,89.07
2023-04-08T04:46:28.947Z,90.79
2023-04-08T04:47:29.839Z,90.93
2023-04-08T04:48:28.834Z,91.07
2023-04-08T04:49:28.886Z,90.48
2023-04-08T04:50:28.812Z,91.17
2023-04-08T04:51:28.802Z,93.40
2023-04-08T04:52:28.797Z,88.92
2023-04-08T04:53:28.797Z,88.51
2023-04-08T04:54:28.801Z,89.93
2023-04-08T04:55:28.793Z,89.32
2023-04-08T04:56:28.820Z,86.94
2023-04-08T04:57:28.778Z,89.42
2023-04-08T04:58:28.776Z,90.56
2023-04-08T04:59:28.773Z,89.69
2023-04-08T05:00:28.781Z,91.99
2023-04-08T05:01:28.808Z,92.13
2023-04-08T05:02:28.945Z,89.52
2023-04-08T05:03:28.847Z,90.77
2023-04-08T05:04:28.747Z,90.30
2023-04-08T05:05:28.842Z,89.29
2023-04-08T05:06:28.804Z,92.51
2023-04-08T05:07:28.787Z,92.35
2023-04-08T05:08:28.814Z,90.22
2023-04-08T05:09:28.854Z,92.24
2023-04-08T05:10:28.848Z,91.99
2023-04-08T05:11:28.962Z,90.31
2023-04-08T05:12:28.884Z,91.37
2023-04-08T05:13:28.892Z,91.64
2023-04-08T05:14:28.904Z,90.52
2023-04-08T05:15:28.924Z,87.72
2023-04-08T05:16:29.006Z,93.00
2023-04-08T05:17:29.035Z,87.43
2023-04-08T05:18:29.005Z,91.14
2023-04-08T05:19:29.023Z,91.58
2023-04-08T05:20:29.036Z,92.97
2023-04-08T05:21:29.129Z,90.73
2023-04-08T05:22:29.074Z,89.08
2023-04-08T05:23:29.097Z,91.43
2023-04-08T05:24:29.111Z,93.44
2023-04-08T05:25:29.126Z,92.12
2023-04-08T05:26:29.123Z,91.62
2023-04-08T05:27:29.161Z,90.47
2023-04-08T05:28:29.156Z,89.29
2023-04-08T05:29:29.162Z,91.62
2023-04-08T05:30:29.177Z,88.31
2023-04-08T05:31:29.288Z,89.20
2023-04-08T05:32:29.237Z,91.13
2023-04-08T05:33:29.249Z,89.18
2023-04-08T05:34:29.273Z,89.90
2023-04-08T05:35:29.349Z,91.63
2023-04-08T05:36:29.333Z,90.36
2023-04-08T05:37:29.348Z,90.96
2023-04-08T05:38:30.352Z,91.16
2023-04-08T05:39:29.349Z,91.04
2023-04-08T05:40:29.346Z,91.86
2023-04-08T05:41:29.350Z,92.05
2023-04-08T05:42:29.348Z,90.79
2023-04-08T05:43:29.351Z,91.00
2023-04-08T05:44:29.357Z,91.51
2023-04-08T05:45:29.358Z,88.41
2023-04-08T05:46:29.382Z,91.59
2023-04-08T05:47:29.378Z,93.27
2023-04-08T05:48:29.346Z,91.40
2023-04-08T05:49:29.391Z,90.11
2023-04-08T05:50:29.353Z,90.92
2023-04-08T05:51:29.353Z,90.89
2023-04-08T05:52:29.351Z,93.92
2023-04-08T05:53:29.360Z,93.47
2023-04-08T05:54:29.355Z,89.56
2023-04-08T05:55:29.361Z,90.20
2023-04-08T05:56:29.353Z,89.98
2023-04-08T05:57:29.373Z,90.49
2023-04-08T05:58:29.384Z,91.27
2023-04-08T05:59:29.409Z,88.96
2023-04-08T06:00:30.297Z,90.44
2023-04-08T06:01:29.548Z,90.81
2023-04-08T06:02:29.587Z,88.58
2023-04-08T06:03:29.615Z,90.20
2023-04-08T06:04:29.613Z,89.55
2023-04-08T06:05:29.514Z,91.02
2023-04-08T06:06:29.532Z,89.02
2023-04-08T06:07:29.570Z,89.85
2023-04-08T06:08:29.574Z,89.48
2023-04-08T06:09:29.592Z,89.11
2023-04-08T06:10:29.617Z,89.44
2023-04-08T06:11:29.629Z,89.99
2023-04-08T06:12:29.635Z,87.79
2023-04-08T06:13:29.668Z,90.07
2023-04-08T06:14:29.692Z,92.25
2023-04-08T06:15:29.708Z,90.16
2023-04-08T06:16:29.782Z,91.88
2023-04-08T06:17:29.753Z,90.84
2023-04-08T06:18:29.759Z,92.60
2023-04-08T06:19:29.774Z,88.70
2023-04-08T06:20:29.798Z,89.00
2023-04-08T06:21:29.803Z,89.41
2023-04-08T06:22:29.827Z,89.32
2023-04-08T06:23:29.838Z,91.50
2023-04-08T06:24:29.952Z,91.95
2023-04-08T06:25:29.860Z,89.21
2023-04-08T06:26:29.871Z,89.35
2023-04-08T06:27:29.887Z,88.36
2023-04-08T06:28:29.912Z,89.39
2023-04-08T06:29:29.932Z,91.40
2023-04-08T06:30:29.942Z,91.24
2023-04-08T06:31:29.992Z,93.89
2023-04-08T06:32:30.015Z,88.88
2023-04-08T06:33:29.988Z,88.12
2023-04-08T06:34:29.997Z,89.30
2023-04-08T06:35:30.048Z,89.16
2023-04-08T06:36:30.058Z,88.44
2023-04-08T06:37:30.067Z,92.10
2023-04-08T06:38:30.099Z,87.15
2023-04-08T06:39:30.103Z,89.76
2023-04-08T06:40:30.131Z,89.94
2023-04-08T06:41:30.157Z,89.91
2023-04-08T06:42:30.193Z,88.78
2023-04-08T06:43:30.214Z,89.15
2023-04-08T06:44:30.240Z,89.46
2023-04-08T06:45:30.256Z,92.57
2023-04-08T06:46:30.288Z,88.25
2023-04-08T06:47:30.372Z,89.23
2023-04-08T06:48:30.576Z,90.61
2023-04-08T06:49:30.419Z,89.49
2023-04-08T06:50:30.375Z,87.59
2023-04-08T06:51:30.411Z,87.88
2023-04-08T06:52:30.439Z,87.35
2023-04-08T06:53:30.524Z,87.42
2023-04-08T06:54:30.482Z,87.37
2023-04-08T06:55:30.513Z,88.10
2023-04-08T06:56:30.518Z,88.03
2023-04-08T06:57:30.606Z,88.24
2023-04-08T06:58:30.563Z,88.57
2023-04-08T06:59:30.569Z,87.78
2023-04-08T07:00:30.602Z,89.66
2023-04-08T07:01:30.653Z,88.84
2023-04-08T07:02:30.677Z,88.16
2023-04-08T07:03:30.733Z,88.78
2023-04-08T07:04:30.647Z,85.93
2023-04-08T07:05:30.668Z,87.99
2023-04-08T07:06:30.681Z,88.04
2023-04-08T07:07:30.705Z,88.32
2023-04-08T07:08:30.712Z,87.16
2023-04-08T07:09:30.725Z,89.89
2023-04-08T07:10:31.752Z,90.01
2023-04-08T07:11:30.723Z,89.96
2023-04-08T07:12:30.875Z,88.59
2023-04-08T07:13:30.801Z,90.47
2023-04-08T07:14:30.747Z,88.89
2023-04-08T07:15:30.926Z,89.83
2023-04-08T07:16:30.763Z,90.80
2023-04-08T07:17:30.931Z,89.20
2023-04-08T07:18:30.749Z,87.98
2023-04-08T07:19:30.748Z,89.68
2023-04-08T07:20:32.252Z,89.04
2023-04-08T07:21:30.743Z,87.81
2023-04-08T07:22:30.760Z,87.79
2023-04-08T07:23:30.750Z,86.80
2023-04-08T07:24:30.759Z,88.81
2023-04-08T07:25:30.776Z,89.23
2023-04-08T07:26:30.804Z,88.75
2023-04-08T07:27:31.775Z,88.95
2023-04-08T07:28:30.825Z,89.08
2023-04-08T07:29:30.772Z,88.87
2023-04-08T07:30:30.778Z,86.62
2023-04-08T07:31:30.792Z,88.06
2023-04-08T07:32:30.798Z,89.48
2023-04-08T07:33:30.772Z,90.05
2023-04-08T07:34:31.307Z,85.52
2023-04-08T07:35:30.836Z,86.61
2023-04-08T07:36:30.761Z,89.88
2023-04-08T07:37:30.769Z,88.59
2023-04-08T07:38:30.748Z,84.02
2023-04-08T07:39:30.754Z,88.36
2023-04-08T07:40:30.751Z,86.47
2023-04-08T07:41:30.747Z,85.39
2023-04-08T07:42:32.355Z,87.34
2023-04-08T07:43:30.745Z,86.74
2023-04-08T07:44:30.740Z,87.21
2023-04-08T07:45:30.736Z,84.94
2023-04-08T07:46:30.823Z,87.18
2023-04-08T07:47:30.806Z,86.83
2023-04-08T07:48:30.787Z,87.12
2023-04-08T07:49:30.816Z,86.13
2023-04-08T07:50:30.831Z,85.75
2023-04-08T07:51:30.860Z,86.60
2023-04-08T07:52:30.863Z,88.02
2023-04-08T07:53:30.931Z,85.58
2023-04-08T07:54:30.960Z,84.87
2023-04-08T07:55:30.974Z,89.11
2023-04-08T07:56:30.981Z,87.50
2023-04-08T07:57:31.048Z,86.23
2023-04-08T07:58:31.011Z,87.81
2023-04-08T07:59:31.121Z,85.74
2023-04-08T08:00:31.131Z,89.47
2023-04-08T08:01:31.074Z,84.79
2023-04-08T08:02:31.108Z,85.18
2023-04-08T08:03:33.762Z,91.04
2023-04-08T08:04:31.232Z,89.22
2023-04-08T08:05:31.085Z,86.87
2023-04-08T08:06:31.950Z,89.46
2023-04-08T08:07:31.089Z,88.32
2023-04-08T08:08:31.123Z,86.42
2023-04-08T08:09:32.122Z,85.61
2023-04-08T08:10:31.109Z,87.25
2023-04-08T08:11:31.090Z,83.10
2023-04-08T08:12:31.077Z,85.43
2023-04-08T08:13:31.076Z,87.41
2023-04-08T08:14:31.069Z,84.28
2023-04-08T08:15:31.069Z,88.60
2023-04-08T08:16:31.120Z,88.98
2023-04-08T08:17:31.105Z,86.29
2023-04-08T08:18:31.065Z,86.91
2023-04-08T08:19:31.132Z,87.05
2023-04-08T08:20:31.070Z,84.96
2023-04-08T08:21:31.377Z,88.11
2023-04-08T08:22:31.072Z,84.72
2023-04-08T08:23:31.096Z,86.29
2023-04-08T08:24:31.138Z,86.14
2023-04-08T08:25:31.100Z,85.40
2023-04-08T08:26:31.077Z,83.67
2023-04-08T08:27:31.070Z,86.65
2023-04-08T08:28:31.181Z,87.11
2023-04-08T08:29:31.097Z,83.79
2023-04-08T08:30:33.532Z,84.93
2023-04-08T08:31:31.121Z,88.88
2023-04-08T08:32:31.199Z,88.35
2023-04-08T08:33:31.112Z,86.57
2023-04-08T08:34:31.152Z,87.05
2023-04-08T08:35:31.157Z,85.61
2023-04-08T08:36:32.745Z,87.59
2023-04-08T08:37:31.852Z,87.65
2023-04-08T08:38:31.160Z,88.10
2023-04-08T08:39:31.223Z,85.42
2023-04-08T08:40:31.302Z,89.50
2023-04-08T08:41:31.364Z,89.13
2023-04-08T08:42:32.275Z,86.16
2023-04-08T08:43:31.477Z,90.97
2023-04-08T08:44:31.503Z,86.57
2023-04-08T08:45:32.379Z,84.44
2023-04-08T08:46:31.694Z,87.73
2023-04-08T08:47:31.712Z,82.97
2023-04-08T08:48:31.685Z,88.20
2023-04-08T08:49:31.731Z,90.46
2023-04-08T08:50:31.778Z,88.00
2023-04-08T08:51:31.806Z,88.17
2023-04-08T08:52:31.842Z,87.10
2023-04-08T08:53:34.232Z,87.07
2023-04-08T08:54:31.902Z,90.54
2023-04-08T08:55:50.843Z,87.32
2023-04-08T08:56:32.966Z,87.57
2023-04-08T08:57:31.971Z,87.63
2023-04-08T08:58:31.904Z,89.79
2023-04-08T08:59:31.916Z,88.38
2023-04-08T09:00:33.294Z,88.00
2023-04-08T09:01:33.239Z,87.56
2023-04-08T09:02:32.187Z,87.59
2023-04-08T09:03:32.127Z,84.92
2023-04-08T09:04:32.090Z,87.63
2023-04-08T09:05:32.039Z,90.55
2023-04-08T09:06:31.934Z,90.58
2023-04-08T09:07:31.929Z,88.62
2023-04-08T09:08:31.978Z,86.55
2023-04-08T09:09:31.936Z,89.24
2023-04-08T09:10:32.020Z,85.03
2023-04-08T09:11:31.996Z,87.63
2023-04-08T09:12:32.042Z,84.72
2023-04-08T09:13:32.111Z,84.52
2023-04-08T09:14:32.178Z,89.12
2023-04-08T09:15:32.232Z,86.24
2023-04-08T09:16:32.385Z,84.70
2023-04-08T09:17:32.376Z,85.14
2023-04-08T09:18:32.441Z,87.38
2023-04-08T09:19:32.544Z,86.06
2023-04-08T09:20:32.546Z,87.86
2023-04-08T09:21:32.610Z,86.43
2023-04-08T09:22:32.696Z,88.35
2023-04-08T09:23:32.736Z,89.99
2023-04-08T09:24:32.800Z,86.42
2023-04-08T09:25:32.915Z,86.17
2023-04-08T09:26:32.971Z,87.15
2023-04-08T09:27:32.999Z,89.08
2023-04-08T09:28:33.046Z,86.83
2023-04-08T09:29:35.133Z,85.95
2023-04-08T09:30:33.098Z,89.40
2023-04-08T09:31:33.153Z,88.64
2023-04-08T09:32:33.106Z,89.69
2023-04-08T09:33:33.098Z,88.62
2023-04-08T09:34:33.098Z,90.46
2023-04-08T09:35:33.117Z,89.56
2023-04-08T09:36:33.084Z,86.65
2023-04-08T09:37:33.075Z,88.58
2023-04-08T09:38:33.119Z,89.16
2023-04-08T09:39:33.079Z,90.94
2023-04-08T09:40:33.059Z,88.55
2023-04-08T09:41:33.363Z,89.70
2023-04-08T09:42:33.179Z,89.37
2023-04-08T09:43:33.047Z,86.63
2023-04-08T09:44:33.900Z,85.97
2023-04-08T09:45:33.048Z,91.07
2023-04-08T09:46:33.003Z,87.64
2023-04-08T09:47:33.029Z,89.79
2023-04-08T09:48:32.983Z,89.90
2023-04-08T09:49:32.974Z,88.79
2023-04-08T09:50:32.974Z,86.28
2023-04-08T09:51:32.957Z,88.43
2023-04-08T09:52:32.946Z,90.37
2023-04-08T09:53:32.933Z,91.64
2023-04-08T09:54:32.925Z,91.44
2023-04-08T09:55:32.928Z,89.89
2023-04-08T09:56:32.912Z,87.83
2023-04-08T09:57:32.905Z,89.79
2023-04-08T09:58:32.900Z,89.92
2023-04-08T09:59:32.882Z,92.82
2023-04-08T10:00:32.878Z,91.74
2023-04-08T10:01:35.096Z,93.43
2023-04-08T10:02:32.985Z,90.77
2023-04-08T10:03:32.960Z,90.71
2023-04-08T10:04:33.100Z,90.54
2023-04-08T10:05:33.917Z,89.54
2023-04-08T10:06:33.010Z,91.96
2023-04-08T10:07:33.022Z,90.02
2023-04-08T10:08:33.075Z,92.37
2023-04-08T10:09:33.100Z,94.12
2023-04-08T10:10:33.153Z,89.95
2023-04-08T10:11:33.197Z,92.21
2023-04-08T10:12:33.882Z,91.43
2023-04-08T10:13:33.347Z,92.52
2023-04-08T10:14:33.340Z,91.92
2023-04-08T10:15:33.399Z,88.31
2023-04-08T10:16:33.442Z,92.27
2023-04-08T10:17:33.472Z,91.32
2023-04-08T10:18:33.515Z,90.10
2023-04-08T10:19:33.526Z,92.59
2023-04-08T10:20:33.689Z,94.82
2023-04-08T10:21:33.625Z,94.60
2023-04-08T10:22:33.683Z,95.12
2023-04-08T10:23:33.705Z,96.20
2023-04-08T10:24:33.730Z,92.26
2023-04-08T10:25:33.764Z,92.92
2023-04-08T10:26:33.815Z,94.16
2023-04-08T10:27:33.877Z,96.11
2023-04-08T10:28:33.900Z,95.42
2023-04-08T10:29:33.934Z,94.32
2023-04-08T10:30:33.970Z,94.43
2023-04-08T10:31:34.032Z,92.14
2023-04-08T10:32:34.102Z,91.82
2023-04-08T10:33:34.037Z,89.14
2023-04-08T10:34:34.063Z,94.11
2023-04-08T10:35:34.167Z,90.85
2023-04-08T10:36:34.121Z,90.06
2023-04-08T10:37:34.154Z,86.79
2023-04-08T10:38:34.190Z,92.98
2023-04-08T10:39:35.024Z,90.52
2023-04-08T10:40:34.254Z,89.60
2023-04-08T10:41:34.280Z,88.24
2023-04-08T10:42:34.327Z,91.11
2023-04-08T10:43:34.348Z,91.56
2023-04-08T10:44:34.379Z,90.45
2023-04-08T10:45:34.418Z,86.39
2023-04-08T10:46:34.462Z,90.43
2023-04-08T10:47:34.665Z,87.94
2023-04-08T10:48:34.623Z,86.50
2023-04-08T10:49:34.535Z,90.37
2023-04-08T10:50:34.589Z,89.65
2023-04-08T10:51:34.645Z,88.77
2023-04-08T10:52:34.634Z,90.22
2023-04-08T10:53:34.737Z,89.91
2023-04-08T10:54:34.702Z,86.87
2023-04-08T10:55:34.858Z,90.84
2023-04-08T10:56:34.782Z,87.87
2023-04-08T10:57:34.771Z,89.40
2023-04-08T10:58:35.391Z,89.39
2023-04-08T10:59:35.388Z,91.38
2023-04-08T11:00:34.922Z,89.71
2023-04-08T11:01:35.094Z,89.08
2023-04-08T11:02:35.120Z,86.34
2023-04-08T11:03:35.192Z,86.14
2023-04-08T11:04:35.018Z,91.51
2023-04-08T11:05:34.990Z,89.92
2023-04-08T11:06:35.004Z,90.13
2023-04-08T11:07:35.036Z,90.52
2023-04-08T11:08:35.041Z,88.81
2023-04-08T11:09:35.079Z,85.16
2023-04-08T11:10:35.224Z,86.49
2023-04-08T11:11:35.115Z,86.46
2023-04-08T11:12:35.150Z,86.03
2023-04-08T11:13:35.180Z,90.05
2023-04-08T11:14:35.206Z,87.93
2023-04-08T11:15:35.268Z,85.88
2023-04-08T11:16:35.304Z,89.68
2023-04-08T11:17:35.336Z,85.94
2023-04-08T11:18:35.289Z,89.88
2023-04-08T11:19:35.335Z,86.98
2023-04-08T11:20:35.353Z,88.64
2023-04-08T11:21:35.375Z,87.05
2023-04-08T11:22:35.407Z,87.71
2023-04-08T11:23:35.428Z,85.31
2023-04-08T11:24:36.566Z,83.19
2023-04-08T11:25:35.477Z,87.13
2023-04-08T11:26:35.506Z,84.80
2023-04-08T11:27:35.512Z,87.48
2023-04-08T11:28:35.563Z,87.25
2023-04-08T11:29:35.575Z,89.23
2023-04-08T11:30:35.605Z,86.91
2023-04-08T11:31:35.742Z,90.18
2023-04-08T11:32:35.785Z,84.46
2023-04-08T11:33:35.743Z,86.91
2023-04-08T11:34:35.715Z,83.17
2023-04-08T11:35:35.742Z,85.46
2023-04-08T11:36:35.750Z,84.11
2023-04-08T11:37:35.787Z,88.24
2023-04-08T11:38:35.890Z,86.91
2023-04-08T11:39:35.821Z,87.84
2023-04-08T11:40:35.870Z,88.66
2023-04-08T11:41:35.864Z,87.90
2023-04-08T11:42:35.883Z,87.67
2023-04-08T11:43:35.923Z,89.76
2023-04-08T11:44:35.963Z,90.50
2023-04-08T11:45:35.990Z,89.08
2023-04-08T11:46:36.028Z,88.56
2023-04-08T11:47:36.065Z,90.29
2023-04-08T11:48:36.076Z,88.60
2023-04-08T11:49:36.101Z,89.38
2023-04-08T11:50:36.126Z,89.58
2023-04-08T11:51:36.189Z,87.32
2023-04-08T11:52:36.193Z,89.71
2023-04-08T11:53:36.221Z,90.03
2023-04-08T11:54:36.410Z,90.51
2023-04-08T11:55:36.292Z,89.73
2023-04-08T11:56:36.335Z,89.08
2023-04-08T11:57:36.937Z,88.82
2023-04-08T11:58:36.466Z,91.01
2023-04-08T11:59:36.560Z,90.40
2023-04-08T12:00:36.457Z,91.86
2023-04-08T12:01:36.519Z,87.09
2023-04-08T12:02:36.578Z,90.04
2023-04-08T12:03:37.143Z,87.82
2023-04-08T12:04:36.666Z,90.43
2023-04-08T12:05:36.601Z,93.91
2023-04-08T12:06:36.648Z,89.65
2023-04-08T12:07:36.662Z,94.27
2023-04-08T12:08:36.682Z,94.69
2023-04-08T12:09:36.713Z,91.06
2023-04-08T12:10:36.747Z,95.23
2023-04-08T12:11:36.753Z,94.68
2023-04-08T12:12:36.777Z,96.85
2023-04-08T12:13:36.792Z,92.71
2023-04-08T12:14:36.814Z,93.55
2023-04-08T12:15:36.848Z,91.54
2023-04-08T12:16:37.032Z,95.07
2023-04-08T12:17:36.916Z,91.94
2023-04-08T12:18:36.933Z,90.51
2023-04-08T12:19:38.410Z,98.31
2023-04-08T12:20:36.994Z,96.17
2023-04-08T12:21:37.009Z,95.47
2023-04-08T12:22:37.067Z,96.86
2023-04-08T12:23:37.062Z,94.37
2023-04-08T12:24:37.085Z,93.88
2023-04-08T12:25:37.111Z,94.64
2023-04-08T12:26:37.238Z,93.94
2023-04-08T12:27:37.182Z,90.82
2023-04-08T12:28:37.296Z,94.47
2023-04-08T12:29:37.231Z,92.22
2023-04-08T12:30:37.266Z,91.00
2023-04-08T12:31:37.315Z,93.96
2023-04-08T12:32:37.331Z,91.17
2023-04-08T12:33:37.352Z,92.58
2023-04-08T12:34:37.380Z,91.98
2023-04-08T12:35:37.550Z,90.22
2023-04-08T12:36:37.817Z,90.56
2023-04-08T12:37:37.482Z,94.02
2023-04-08T12:38:37.516Z,92.82
2023-04-08T12:39:38.426Z,90.48
2023-04-08T12:40:37.570Z,92.25
2023-04-08T12:41:37.611Z,92.20
2023-04-08T12:42:37.628Z,94.60
2023-04-08T12:43:37.665Z,93.92
2023-04-08T12:44:37.718Z,90.75
2023-04-08T12:45:37.772Z,90.61
2023-04-08T12:46:37.776Z,94.47
2023-04-08T12:47:39.558Z,91.48
2023-04-08T12:48:38.012Z,89.54
2023-04-08T12:49:48.859Z,91.52
2023-04-08T12:50:38.865Z,91.62
2023-04-08T12:51:38.035Z,91.95
2023-04-08T12:52:37.846Z,92.52